WetterOnline ( http://www.wetteronline.de )

Wetter aktuell Werl

Aktuelles Wetter: Werl (84m)

6-stündlich | Neueste Meldungen
Ortszeit Temperatur Wetter
Di, 17.07. 14:00 28.6° C leicht bewölkt
Di, 17.07. 8:00 18.5° C fast wolkenlos
Di, 17.07. 2:00 15.1° C wolkig
Mo, 16.07. 20:00 27.2° C leicht bewölkt
Mo, 16.07. 14:00 27.2° C wolkenlos
Mo, 16.07. 8:00 16.4° C wolkenlos
Mo, 16.07. 2:00 13.7° C wolkenlos
So, 15.07. 20:00 24.9° C wolkenlos
Ortszeit Temperatur Wetter
Di, 17.07. 15:00 29.5° C fast wolkenlos
Di, 17.07. 14:50 29.5° C fast wolkenlos
Di, 17.07. 14:40 29.0° C leicht bewölkt
Di, 17.07. 14:30 28.9° C leicht bewölkt
Di, 17.07. 14:20 28.9° C leicht bewölkt
Di, 17.07. 14:10 29.5° C leicht bewölkt
Di, 17.07. 14:00 28.6° C leicht bewölkt
Di, 17.07. 13:30 29.1° C wolkig
Di, 17.07. 13:00 28.5° C wolkig
Di, 17.07. 12:30 28.4° C wolkig
Di, 17.07. 12:00 27.4° C leicht bewölkt
Ortszeit Relative Feuchte Sichtweite
Di, 17.07. 14:00 32% 27 km
Di, 17.07. 8:00 74% 24 km
Di, 17.07. 2:00 81% 30 km
Mo, 16.07. 20:00 34% 60 km
Mo, 16.07. 14:00 31% 50 km
Mo, 16.07. 8:00 72% 30 km
Mo, 16.07. 2:00 82% 40 km
So, 15.07. 20:00 33% 70 km
Ortszeit Relative Feuchte Sichtweite
Di, 17.07. 15:00 33% 35 km
Di, 17.07. 14:50 33% -
Di, 17.07. 14:40 31% -
Di, 17.07. 14:30 35% 26 km
Di, 17.07. 14:20 35% -
Di, 17.07. 14:10 33% -
Di, 17.07. 14:00 32% 27 km
Di, 17.07. 13:30 33% 29 km
Di, 17.07. 13:00 36% 30 km
Di, 17.07. 12:30 35% 35 km
Di, 17.07. 12:00 37% 27 km
Ortszeit Niederschlagsmenge Niederschlagsart
Di, 17.07. 14:00 0.0 l/m2 in 6 Std. -
Di, 17.07. 8:00 0.0 l/m2 in 12 Std. -
Di, 17.07. 2:00 0.0 l/m2 in 6 Std. -
Mo, 16.07. 20:00 0.0 l/m2 in 12 Std. -
Mo, 16.07. 14:00 0.0 l/m2 in 6 Std. -
Mo, 16.07. 8:00 0.0 l/m2 in 12 Std. -
Mo, 16.07. 2:00 0.0 l/m2 in 6 Std. -
So, 15.07. 20:00 0.0 l/m2 in 12 Std. -
Ortszeit Niederschlagsmenge Niederschlagsart
Di, 17.07. 15:00 0.0 l/m2 in 1 Std. -
Di, 17.07. 14:50 keine Meldung -
Di, 17.07. 14:40 keine Meldung -
Di, 17.07. 14:30 0.0 l/m2 in 1 Std. -
Di, 17.07. 14:20 keine Meldung -
Di, 17.07. 14:10 keine Meldung -
Di, 17.07. 14:00 0.0 l/m2 in 1 Std. -
Di, 17.07. 13:30 0.0 l/m2 in 1 Std. -
Di, 17.07. 13:00 0.0 l/m2 in 1 Std. -
Di, 17.07. 12:30 0.0 l/m2 in 1 Std. -
Di, 17.07. 12:00 0.0 l/m2 in 1 Std. -
Ortszeit Stärke Spitze Richtung
km/h Bft. km/h Grad Sektor
Di, 17.07. 14:00 14 3 29 250° W
Di, 17.07. 8:00 0 0 0 - -
Di, 17.07. 2:00 0 0 18 - -
Mo, 16.07. 20:00 7 2 18 10° N
Mo, 16.07. 14:00 7 2 25 90° O
Mo, 16.07. 8:00 2 1 7 50° NO
Mo, 16.07. 2:00 4 1 22 70° O
So, 15.07. 20:00 13 3 33 50° NO
Ortszeit Stärke Spitze Richtung
km/h Bft. km/h Grad Sektor
Di, 17.07. 15:00 19 3 30 260° W
Di, 17.07. 14:50 19 3 - 260° W
Di, 17.07. 14:40 18 3 - 240° SW
Di, 17.07. 14:30 18 3 29 260° W
Di, 17.07. 14:20 18 3 - 260° W
Di, 17.07. 14:10 14 3 - 250° W
Di, 17.07. 14:00 14 3 29 250° W
Di, 17.07. 13:30 14 3 29 250° W
Di, 17.07. 13:00 13 3 26 280° W
Di, 17.07. 12:30 13 3 26 270° W
Di, 17.07. 12:00 14 3 22 270° W
Ortszeit Untergrenze Bedeckung Gattung
total tief tief mittel hoch
Di, 17.07. 14:00 9000 m 8/8 0/8 - - -
Di, 17.07. 8:00 8700 m 2/8 0/8 - - -
Di, 17.07. 2:00 9000 m 7/8 0/8 - - -
Mo, 16.07. 20:00 8400 m 7/8 0/8 - - -
Mo, 16.07. 14:00 - 0/8 0/8 - - -
Mo, 16.07. 8:00 - 0/8 0/8 - - -
Mo, 16.07. 2:00 - 0/8 0/8 - - -
So, 15.07. 20:00 - 0/8 0/8 - - -
Ortszeit Bedeckungsgrad in Achtel und Wolkenuntergrenze
Di, 17.07. 15:00 1(4500m)
Di, 17.07. 14:50 1(4500m)
Di, 17.07. 14:40 1(3000m) 2(4500m)
Di, 17.07. 14:30 2(3000m) 3(10500m) 4(10500m)
Di, 17.07. 14:20 2(3000m) 3(10500m)
Di, 17.07. 14:10 4(9000m)
Di, 17.07. 14:00 1(9000m) 8(9000m)
Di, 17.07. 13:30 1(3600m) 5(9000m) 8(9000m)
Di, 17.07. 13:00 2(2700m) 8(9000m) 8(10500m)
Di, 17.07. 12:30 2(3300m) 7(9000m) 7(10500m)
Di, 17.07. 12:00 5(9000m) 8(10500m)
Ortszeit Luftdruck NN (hPa) Tendenz (hPa in 3 Std.)
Di, 17.07. 14:00 1014 + 0,1
Di, 17.07. 8:00 1014 + 0,5
Di, 17.07. 2:00 1013 + 0,7
Mo, 16.07. 20:00 1011 - 0,3
Mo, 16.07. 14:00 1013 - 0,8
Mo, 16.07. 8:00 1015 - 0,2
Mo, 16.07. 2:00 1016 + 0,1
So, 15.07. 20:00 1015 - 0,6
Ortszeit Luftdruck NN (hPa) Tendenz (hPa in 3 Std.)
Di, 17.07. 15:00 1014 - 0,3
Di, 17.07. 14:50 1014 keine Meldung
Di, 17.07. 14:40 1014 keine Meldung
Di, 17.07. 14:30 1014 - 0,1
Di, 17.07. 14:20 1014 keine Meldung
Di, 17.07. 14:10 1014 keine Meldung
Di, 17.07. 14:00 1014 + 0,1
Di, 17.07. 13:30 1014 + 0,1
Di, 17.07. 13:00 1014 + 0,2
Di, 17.07. 12:30 1014 + 0,3
Di, 17.07. 12:00 1014 + 0,3
Ortszeit Schneehöhe (cm)
Di, 17.07. 14:00 -
Di, 17.07. 8:00 -
Di, 17.07. 2:00 -
Mo, 16.07. 20:00 -
Mo, 16.07. 14:00 -
Mo, 16.07. 8:00 -
Mo, 16.07. 2:00 -
So, 15.07. 20:00 -
Ortszeit Schneehöhe (cm)
Di, 17.07. 15:00 -
Di, 17.07. 14:50 -
Di, 17.07. 14:40 -
Di, 17.07. 14:30 -
Di, 17.07. 14:20 -
Di, 17.07. 14:10 -
Di, 17.07. 14:00 -
Di, 17.07. 13:30 -
Di, 17.07. 13:00 -
Di, 17.07. 12:30 -
Di, 17.07. 12:00 -
Link zu dieser Seite / Seite empfehlen

Das Wetter in ...